createdAt,value
2019-01-14T00:01:29.892Z,99.90
2019-01-14T00:03:59.220Z,99.90
2019-01-14T00:06:28.702Z,99.90
2019-01-14T00:08:58.019Z,99.90
2019-01-14T00:11:27.372Z,99.90
2019-01-14T00:13:56.696Z,99.90
2019-01-14T00:16:26.068Z,99.90
2019-01-14T00:18:55.423Z,99.90
2019-01-14T00:21:24.761Z,99.90
2019-01-14T00:23:54.204Z,99.90
2019-01-14T00:26:23.620Z,99.90
2019-01-14T00:28:53.006Z,99.90
2019-01-14T00:31:22.305Z,99.90
2019-01-14T00:33:52.430Z,99.90
2019-01-14T00:36:21.782Z,99.90
2019-01-14T00:38:51.067Z,99.90
2019-01-14T00:41:20.381Z,99.90
2019-01-14T00:43:49.807Z,99.90
2019-01-14T00:46:19.131Z,99.90
2019-01-14T00:48:48.417Z,99.90
2019-01-14T00:51:17.719Z,99.90
2019-01-14T00:53:47.062Z,99.90
2019-01-14T00:56:16.450Z,99.90
2019-01-14T00:58:45.733Z,99.90
2019-01-14T01:01:15.066Z,99.90
2019-01-14T01:03:44.366Z,99.90
2019-01-14T01:06:13.747Z,99.90
2019-01-14T01:08:43.067Z,99.90
2019-01-14T01:11:12.410Z,99.90
2019-01-14T01:13:41.705Z,99.90
2019-01-14T01:16:11.012Z,99.90
2019-01-14T01:18:40.319Z,99.90
2019-01-14T01:21:09.676Z,99.90
2019-01-14T01:23:38.987Z,99.90
2019-01-14T01:26:08.316Z,99.90
2019-01-14T01:28:37.670Z,99.90
2019-01-14T01:31:07.025Z,99.90
2019-01-14T01:33:36.372Z,99.90
2019-01-14T01:36:05.667Z,99.90
2019-01-14T01:38:35.063Z,99.90
2019-01-14T01:41:04.593Z,99.90
2019-01-14T01:43:33.973Z,99.90
2019-01-14T01:46:03.277Z,99.90
2019-01-14T01:48:32.587Z,99.90
2019-01-14T01:51:02.030Z,99.90
2019-01-14T01:53:31.410Z,99.90
2019-01-14T01:56:00.730Z,99.90
2019-01-14T01:58:30.087Z,99.90
2019-01-14T02:00:59.515Z,99.90
2019-01-14T02:03:28.934Z,99.90
2019-01-14T02:05:58.360Z,99.90
2019-01-14T02:08:27.653Z,99.90
2019-01-14T02:10:56.931Z,99.90
2019-01-14T02:13:26.326Z,99.90
2019-01-14T02:15:55.631Z,99.90
2019-01-14T02:18:24.912Z,99.90
2019-01-14T02:20:54.240Z,99.90
2019-01-14T02:23:23.532Z,99.90
2019-01-14T02:25:52.966Z,99.90
2019-01-14T02:28:22.248Z,99.90
2019-01-14T02:30:51.600Z,99.90
2019-01-14T02:33:20.940Z,99.90
2019-01-14T02:35:50.539Z,99.90
2019-01-14T02:38:19.891Z,99.90
2019-01-14T02:40:49.323Z,99.90
2019-01-14T02:43:18.624Z,99.90
2019-01-14T02:45:48.152Z,99.90
2019-01-14T02:48:17.499Z,99.90
2019-01-14T02:50:46.968Z,99.90
2019-01-14T02:53:16.388Z,99.90
2019-01-14T02:55:45.792Z,99.90
2019-01-14T02:58:15.282Z,99.90
2019-01-14T03:00:44.779Z,99.90
2019-01-14T03:03:14.266Z,99.90
2019-01-14T03:05:43.830Z,99.90
2019-01-14T03:08:13.293Z,99.90
2019-01-14T03:10:42.659Z,99.90
2019-01-14T03:13:12.112Z,99.90
2019-01-14T03:15:41.534Z,99.90
2019-01-14T03:18:10.998Z,99.90
2019-01-14T03:20:40.591Z,99.90
2019-01-14T03:23:10.184Z,99.90
2019-01-14T03:25:42.034Z,99.90
2019-01-14T03:28:11.544Z,99.90
2019-01-14T03:30:40.907Z,99.90
2019-01-14T03:33:10.488Z,99.90
2019-01-14T03:35:39.841Z,99.90
2019-01-14T03:38:09.164Z,99.90
2019-01-14T03:40:38.787Z,99.90
2019-01-14T03:43:08.231Z,99.90
2019-01-14T03:45:37.608Z,99.90
2019-01-14T03:48:07.004Z,99.90
2019-01-14T03:50:36.457Z,99.90
2019-01-14T03:53:05.911Z,99.90
2019-01-14T03:55:35.353Z,99.90
2019-01-14T03:58:04.876Z,99.90
2019-01-14T04:00:34.378Z,99.90
2019-01-14T04:03:03.693Z,99.90
2019-01-14T04:05:33.169Z,99.90
2019-01-14T04:08:02.739Z,99.90
2019-01-14T04:10:32.231Z,99.90
2019-01-14T04:13:01.747Z,99.90
2019-01-14T04:15:31.112Z,99.90
2019-01-14T04:18:00.515Z,99.90
2019-01-14T04:20:29.995Z,99.90
2019-01-14T04:23:01.210Z,99.90
2019-01-14T04:25:30.556Z,99.90
2019-01-14T04:27:59.963Z,99.90
2019-01-14T04:30:29.377Z,99.90
2019-01-14T04:32:58.733Z,99.90
2019-01-14T04:35:28.209Z,99.90
2019-01-14T04:37:57.564Z,99.90
2019-01-14T04:40:27.016Z,99.90
2019-01-14T04:42:56.419Z,99.90
2019-01-14T04:45:25.932Z,99.90
2019-01-14T04:47:55.402Z,99.90
2019-01-14T04:50:25.011Z,99.90
2019-01-14T04:52:54.404Z,99.90
2019-01-14T04:55:23.772Z,99.90
2019-01-14T04:57:53.171Z,99.90
2019-01-14T05:00:24.585Z,99.90
2019-01-14T05:02:54.001Z,99.90
2019-01-14T05:05:23.585Z,99.90
2019-01-14T05:07:53.007Z,99.90
2019-01-14T05:10:22.607Z,99.90
2019-01-14T05:12:51.979Z,99.90
2019-01-14T05:15:21.411Z,99.90
2019-01-14T05:17:50.765Z,99.90
2019-01-14T05:20:22.257Z,99.90
2019-01-14T05:22:51.765Z,99.90
2019-01-14T05:25:21.238Z,99.90
2019-01-14T05:27:50.757Z,99.90
2019-01-14T05:30:20.632Z,99.90
2019-01-14T05:32:50.276Z,99.90
2019-01-14T05:35:19.752Z,99.90
2019-01-14T05:37:49.113Z,99.90
2019-01-14T05:40:23.515Z,99.90
2019-01-14T05:42:52.874Z,99.90
2019-01-14T05:45:22.209Z,99.90
2019-01-14T05:47:51.690Z,99.90
2019-01-14T05:50:21.066Z,99.90
2019-01-14T05:52:50.521Z,99.90
2019-01-14T05:55:19.896Z,99.90
2019-01-14T05:57:49.235Z,99.90
2019-01-14T06:00:24.152Z,99.90
2019-01-14T06:02:53.561Z,99.90
2019-01-14T06:05:22.967Z,99.90
2019-01-14T06:07:52.292Z,99.90
2019-01-14T06:10:21.654Z,99.90
2019-01-14T06:12:50.951Z,99.90
2019-01-14T06:15:20.554Z,99.90
2019-01-14T06:17:49.840Z,99.90
2019-01-14T06:20:20.876Z,99.90
2019-01-14T06:22:50.174Z,99.90
2019-01-14T06:25:19.508Z,99.90
2019-01-14T06:27:48.876Z,99.90
2019-01-14T06:30:20.568Z,99.90
2019-01-14T06:32:49.894Z,99.90
2019-01-14T06:35:19.226Z,99.90
2019-01-14T06:37:52.504Z,99.90
2019-01-14T06:40:20.252Z,99.90
2019-01-14T06:42:49.599Z,99.90
2019-01-14T06:45:19.171Z,99.90
2019-01-14T06:47:48.552Z,99.90
2019-01-14T06:50:18.937Z,99.90
2019-01-14T06:52:48.411Z,99.90
2019-01-14T06:55:19.233Z,99.90
2019-01-14T06:57:48.687Z,99.90
2019-01-14T07:00:20.582Z,99.90
2019-01-14T07:02:50.108Z,99.90
2019-01-14T07:05:19.661Z,99.90
2019-01-14T07:07:49.358Z,99.90
2019-01-14T07:10:21.636Z,99.90
2019-01-14T07:12:51.119Z,99.90
2019-01-14T07:15:20.522Z,99.90
2019-01-14T07:17:49.881Z,99.90
2019-01-14T07:20:19.541Z,99.90
2019-01-14T07:22:48.924Z,99.90
2019-01-14T07:25:18.307Z,99.90
2019-01-14T07:27:47.698Z,99.90
2019-01-14T07:30:18.887Z,99.90
2019-01-14T07:32:48.228Z,99.90
2019-01-14T07:35:17.601Z,99.90
2019-01-14T07:37:47.508Z,99.90
2019-01-14T07:40:17.242Z,99.90
2019-01-14T07:42:46.601Z,99.90
2019-01-14T07:45:16.938Z,99.90
2019-01-14T07:47:46.254Z,99.90
2019-01-14T07:50:16.542Z,99.90
2019-01-14T07:52:46.014Z,99.90
2019-01-14T07:55:15.329Z,99.90
2019-01-14T07:57:44.674Z,99.90
2019-01-14T08:00:22.947Z,99.90
2019-01-14T08:02:52.525Z,99.90
2019-01-14T08:05:21.847Z,99.90
2019-01-14T08:07:51.342Z,99.90
2019-01-14T08:10:20.683Z,99.90
2019-01-14T08:12:50.054Z,99.90
2019-01-14T08:15:21.056Z,99.90
2019-01-14T08:17:50.378Z,99.90
2019-01-14T08:20:19.703Z,99.90
2019-01-14T08:22:49.120Z,99.90
2019-01-14T08:25:18.464Z,99.90
2019-01-14T08:27:47.807Z,99.90
2019-01-14T08:30:19.093Z,99.90
2019-01-14T08:32:48.542Z,99.90
2019-01-14T08:35:18.053Z,99.90
2019-01-14T08:37:47.374Z,99.90
2019-01-14T08:40:17.941Z,99.90
2019-01-14T08:42:47.411Z,99.90
2019-01-14T08:45:16.792Z,99.90
2019-01-14T08:47:46.083Z,99.90
2019-01-14T08:50:17.517Z,99.90
2019-01-14T08:52:46.853Z,99.90
2019-01-14T08:55:16.200Z,99.90
2019-01-14T08:57:45.583Z,99.90
2019-01-14T09:00:17.304Z,99.90
2019-01-14T09:02:46.647Z,99.90
2019-01-14T09:05:16.318Z,99.90
2019-01-14T09:07:45.679Z,99.90
2019-01-14T09:10:21.010Z,99.90
2019-01-14T09:12:50.308Z,99.90
2019-01-14T09:15:19.877Z,99.90
2019-01-14T09:17:49.316Z,99.90
2019-01-14T09:20:20.141Z,99.90
2019-01-14T09:22:49.452Z,99.90
2019-01-14T09:25:18.828Z,99.90
2019-01-14T09:27:48.395Z,99.90
2019-01-14T09:30:22.539Z,99.90
2019-01-14T09:32:52.117Z,99.90
2019-01-14T09:35:21.462Z,99.90
2019-01-14T09:37:50.827Z,99.90
2019-01-14T09:40:21.730Z,99.90
2019-01-14T09:42:51.090Z,99.90
2019-01-14T09:45:20.438Z,99.90
2019-01-14T09:47:49.891Z,99.90
2019-01-14T09:50:19.331Z,99.90
2019-01-14T09:52:49.673Z,99.90
2019-01-14T09:55:19.951Z,99.90
2019-01-14T09:57:49.408Z,99.90
2019-01-14T10:00:18.841Z,99.90
2019-01-14T10:02:48.430Z,99.90
2019-01-14T10:05:19.586Z,99.90
2019-01-14T10:07:49.136Z,99.90
2019-01-14T10:10:19.463Z,99.90
2019-01-14T10:12:48.777Z,99.90
2019-01-14T10:15:23.083Z,99.90
2019-01-14T10:18:01.062Z,99.90
2019-01-14T10:20:30.445Z,99.90
2019-01-14T10:22:59.927Z,99.90
2019-01-14T10:25:29.400Z,99.90
2019-01-14T10:27:58.790Z,99.90
2019-01-14T10:30:28.106Z,99.90
2019-01-14T10:32:57.699Z,99.90
2019-01-14T10:35:27.265Z,99.90
2019-01-14T10:37:56.548Z,99.90
2019-01-14T10:40:26.000Z,99.90
2019-01-14T10:42:55.384Z,99.90
2019-01-14T10:45:24.898Z,99.90
2019-01-14T10:47:54.354Z,99.90
2019-01-14T10:50:23.879Z,99.90
2019-01-14T10:52:53.500Z,99.90
2019-01-14T10:55:23.023Z,99.90
2019-01-14T10:57:52.869Z,99.90
2019-01-14T11:00:24.824Z,99.90
2019-01-14T11:02:54.573Z,99.90
2019-01-14T11:05:26.954Z,99.90
2019-01-14T11:07:56.703Z,99.90
2019-01-14T11:10:26.790Z,99.90
2019-01-14T11:12:56.609Z,99.90
2019-01-14T11:15:26.416Z,99.90
2019-01-14T11:17:56.669Z,99.90
2019-01-14T11:20:28.537Z,99.90
2019-01-14T11:22:58.439Z,99.90
2019-01-14T11:25:28.273Z,99.90
2019-01-14T11:27:58.231Z,99.90
2019-01-14T11:30:30.406Z,99.90
2019-01-14T11:32:59.966Z,99.90
2019-01-14T11:35:29.783Z,99.90
2019-01-14T11:37:59.448Z,99.90
2019-01-14T11:40:47.653Z,99.90
2019-01-14T11:43:17.267Z,99.90
2019-01-14T11:45:46.870Z,99.90
2019-01-14T11:48:16.632Z,99.90
2019-01-14T11:50:48.281Z,99.90
2019-01-14T11:53:18.165Z,99.90
2019-01-14T11:55:47.901Z,99.90
2019-01-14T11:58:17.760Z,99.90
2019-01-14T12:00:47.294Z,99.90
2019-01-14T12:03:17.019Z,99.90
2019-01-14T12:05:46.768Z,99.90
2019-01-14T12:08:16.609Z,99.90
2019-01-14T12:10:46.481Z,99.90
2019-01-14T12:13:16.596Z,99.90
2019-01-14T12:15:46.404Z,99.90
2019-01-14T12:18:18.457Z,99.90
2019-01-14T12:20:48.004Z,99.90
2019-01-14T12:23:17.708Z,99.90
2019-01-14T12:25:47.728Z,99.90
2019-01-14T12:28:17.462Z,99.90
2019-01-14T12:30:46.923Z,99.90
2019-01-14T12:33:16.326Z,99.90
2019-01-14T12:35:45.633Z,99.90
2019-01-14T12:38:14.940Z,99.90
2019-01-14T12:40:44.245Z,99.00
2019-01-14T12:43:13.594Z,98.50
2019-01-14T12:45:42.888Z,98.80
2019-01-14T12:48:12.216Z,98.10
2019-01-14T12:50:41.836Z,98.00
2019-01-14T12:53:11.125Z,99.00
2019-01-14T12:55:40.459Z,99.30
2019-01-14T12:58:09.744Z,99.80
2019-01-14T13:00:39.072Z,99.90
2019-01-14T13:03:08.412Z,99.50
2019-01-14T13:05:37.853Z,98.00
2019-01-14T13:08:07.195Z,98.10
2019-01-14T13:10:36.495Z,99.90
2019-01-14T13:13:05.915Z,99.90
2019-01-14T13:15:35.255Z,99.90
2019-01-14T13:18:05.523Z,99.90
2019-01-14T13:20:35.041Z,99.90
2019-01-14T13:23:04.492Z,99.90
2019-01-14T13:25:33.827Z,99.90
2019-01-14T13:28:03.159Z,99.90
2019-01-14T13:30:32.511Z,99.90
2019-01-14T13:33:02.029Z,99.90
2019-01-14T13:35:31.390Z,99.90
2019-01-14T13:38:00.772Z,99.90
2019-01-14T13:40:30.119Z,99.90
2019-01-14T13:42:59.412Z,99.90
2019-01-14T13:45:28.783Z,99.90
2019-01-14T13:47:58.126Z,99.90
2019-01-14T13:50:27.932Z,99.90
2019-01-14T13:52:57.226Z,99.90
2019-01-14T13:55:26.567Z,99.90
2019-01-14T13:57:59.876Z,99.90
2019-01-14T14:00:28.087Z,99.90
2019-01-14T14:02:57.446Z,99.90
2019-01-14T14:05:26.779Z,99.90
2019-01-14T14:07:56.113Z,99.90
2019-01-14T14:10:28.139Z,99.90
2019-01-14T14:12:57.634Z,99.90
2019-01-14T14:15:27.077Z,99.90
2019-01-14T14:17:56.683Z,99.90
2019-01-14T14:20:26.162Z,99.90
2019-01-14T14:22:55.504Z,99.90
2019-01-14T14:25:24.821Z,99.90
2019-01-14T14:27:54.189Z,99.90
2019-01-14T14:30:25.980Z,99.90
2019-01-14T14:32:55.352Z,99.90
2019-01-14T14:35:24.718Z,99.90
2019-01-14T14:38:00.611Z,99.90
2019-01-14T14:40:25.129Z,99.90
2019-01-14T14:42:54.601Z,99.90
2019-01-14T14:45:23.928Z,99.90
2019-01-14T14:47:53.335Z,99.90
2019-01-14T14:50:22.719Z,99.90
2019-01-14T14:52:52.166Z,99.90
2019-01-14T14:55:21.512Z,99.90
2019-01-14T14:57:50.907Z,99.90
2019-01-14T15:00:21.400Z,99.90
2019-01-14T15:02:50.967Z,99.90
2019-01-14T15:05:20.657Z,99.90
2019-01-14T15:07:50.072Z,99.90
2019-01-14T15:10:21.037Z,99.90
2019-01-14T15:12:50.497Z,99.90
2019-01-14T15:15:22.084Z,99.90
2019-01-14T15:17:51.423Z,99.90
2019-01-14T15:20:22.427Z,99.90
2019-01-14T15:22:51.776Z,99.90
2019-01-14T15:25:21.116Z,99.90
2019-01-14T15:27:50.451Z,99.90
2019-01-14T15:30:25.280Z,99.90
2019-01-14T15:32:54.581Z,99.90
2019-01-14T15:35:24.232Z,99.90
2019-01-14T15:37:53.558Z,99.90
2019-01-14T15:40:23.604Z,99.90
2019-01-14T15:42:52.924Z,99.90
2019-01-14T15:45:23.463Z,99.90
2019-01-14T15:47:52.789Z,99.90
2019-01-14T15:50:22.165Z,99.90
2019-01-14T15:52:51.517Z,99.90
2019-01-14T15:55:31.024Z,99.90
2019-01-14T15:58:00.371Z,99.90
2019-01-14T16:00:29.730Z,99.90
2019-01-14T16:02:59.075Z,99.90
2019-01-14T16:05:28.435Z,99.90
2019-01-14T16:07:57.771Z,99.90
2019-01-14T16:10:27.323Z,99.90
2019-01-14T16:12:56.750Z,99.90
2019-01-14T16:15:26.214Z,99.90
2019-01-14T16:17:55.548Z,99.90
2019-01-14T16:20:28.382Z,99.90
2019-01-14T16:22:57.706Z,99.90
2019-01-14T16:25:27.061Z,99.90
2019-01-14T16:27:56.379Z,99.90
2019-01-14T16:30:27.252Z,99.90
2019-01-14T16:32:56.616Z,99.90
2019-01-14T16:35:25.959Z,99.90
2019-01-14T16:37:55.328Z,99.90
2019-01-14T16:40:24.665Z,99.90
2019-01-14T16:42:54.155Z,99.90
2019-01-14T16:45:27.402Z,99.90
2019-01-14T16:47:57.077Z,99.90
2019-01-14T16:50:26.423Z,99.90
2019-01-14T16:52:55.787Z,99.90
2019-01-14T16:55:33.969Z,99.90
2019-01-14T16:58:03.343Z,99.90
2019-01-14T17:00:32.739Z,99.90
2019-01-14T17:03:02.129Z,99.90
2019-01-14T17:05:31.459Z,99.90
2019-01-14T17:08:00.828Z,99.90
2019-01-14T17:10:30.201Z,99.90
2019-01-14T17:12:59.638Z,99.90
2019-01-14T17:15:29.024Z,99.90
2019-01-14T17:17:58.401Z,99.90
2019-01-14T17:20:27.745Z,99.90
2019-01-14T17:22:57.201Z,99.90
2019-01-14T17:25:26.601Z,99.90
2019-01-14T17:27:55.985Z,99.90
2019-01-14T17:30:25.302Z,99.90
2019-01-14T17:32:54.833Z,99.90
2019-01-14T17:35:24.168Z,99.90
2019-01-14T17:37:53.605Z,99.90
2019-01-14T17:40:22.943Z,99.90
2019-01-14T17:42:52.282Z,99.90
2019-01-14T17:45:21.624Z,99.90
2019-01-14T17:47:51.053Z,99.90
2019-01-14T17:50:21.250Z,99.90
2019-01-14T17:52:50.581Z,99.90
2019-01-14T17:55:19.916Z,99.90
2019-01-14T17:57:49.277Z,99.90
2019-01-14T18:00:21.068Z,99.90
2019-01-14T18:02:50.349Z,99.90
2019-01-14T18:05:19.715Z,99.90
2019-01-14T18:07:49.071Z,99.90
2019-01-14T18:10:19.067Z,99.90
2019-01-14T18:12:48.402Z,99.90
2019-01-14T18:15:17.728Z,99.90
2019-01-14T18:17:47.192Z,99.90
2019-01-14T18:20:18.407Z,99.90
2019-01-14T18:22:47.855Z,99.90
2019-01-14T18:25:17.270Z,99.90
2019-01-14T18:27:46.737Z,99.90
2019-01-14T18:30:20.615Z,99.90
2019-01-14T18:32:49.953Z,99.90
2019-01-14T18:35:19.350Z,99.90
2019-01-14T18:37:48.862Z,99.90
2019-01-14T18:40:18.978Z,99.90
2019-01-14T18:42:48.732Z,99.90
2019-01-14T18:45:19.979Z,99.90
2019-01-14T18:47:49.668Z,99.90
2019-01-14T18:50:22.992Z,99.90
2019-01-14T18:52:52.447Z,99.90
2019-01-14T18:55:21.761Z,99.90
2019-01-14T18:57:51.141Z,99.90
2019-01-14T19:00:22.877Z,99.90
2019-01-14T19:02:52.334Z,99.90
2019-01-14T19:05:21.729Z,99.90
2019-01-14T19:07:51.048Z,99.90
2019-01-14T19:10:20.435Z,99.90
2019-01-14T19:12:49.778Z,99.90
2019-01-14T19:15:20.536Z,99.90
2019-01-14T19:17:50.473Z,99.90
2019-01-14T19:20:22.192Z,99.90
2019-01-14T19:22:51.633Z,99.90
2019-01-14T19:25:20.955Z,99.90
2019-01-14T19:27:50.445Z,99.90
2019-01-14T19:30:20.505Z,99.90
2019-01-14T19:32:49.945Z,99.90
2019-01-14T19:35:19.393Z,99.90
2019-01-14T19:37:48.712Z,99.90
2019-01-14T19:40:20.104Z,99.90
2019-01-14T19:42:49.694Z,99.90
2019-01-14T19:45:21.324Z,99.90
2019-01-14T19:47:50.747Z,99.90
2019-01-14T19:50:24.462Z,99.90
2019-01-14T19:52:54.924Z,99.90
2019-01-14T19:55:24.308Z,99.90
2019-01-14T19:57:53.807Z,99.90
2019-01-14T20:00:30.872Z,99.90
2019-01-14T20:03:00.356Z,99.90
2019-01-14T20:05:30.053Z,99.90
2019-01-14T20:07:59.561Z,99.90
2019-01-14T20:10:28.971Z,99.90
2019-01-14T20:12:58.408Z,99.90
2019-01-14T20:15:27.919Z,99.90
2019-01-14T20:17:57.293Z,99.90
2019-01-14T20:20:26.692Z,99.90
2019-01-14T20:22:56.104Z,99.90
2019-01-14T20:25:25.731Z,99.90
2019-01-14T20:27:55.096Z,99.90
2019-01-14T20:30:25.229Z,99.90
2019-01-14T20:32:54.592Z,99.90
2019-01-14T20:35:24.062Z,99.90
2019-01-14T20:37:53.567Z,99.90
2019-01-14T20:40:22.902Z,99.90
2019-01-14T20:42:52.285Z,99.90
2019-01-14T20:45:21.692Z,99.90
2019-01-14T20:47:51.606Z,99.90
2019-01-14T20:50:21.717Z,99.90
2019-01-14T20:52:51.128Z,99.90
2019-01-14T20:55:20.544Z,99.90
2019-01-14T20:57:50.009Z,99.90
2019-01-14T21:00:23.096Z,99.90
2019-01-14T21:02:52.629Z,99.90
2019-01-14T21:05:22.793Z,99.90
2019-01-14T21:07:52.198Z,99.90
2019-01-14T21:10:21.599Z,99.90
2019-01-14T21:12:50.967Z,99.90
2019-01-14T21:15:20.467Z,99.90
2019-01-14T21:17:49.956Z,99.90
2019-01-14T21:20:23.841Z,99.90
2019-01-14T21:22:54.031Z,99.90
2019-01-14T21:25:23.438Z,99.90
2019-01-14T21:27:52.883Z,99.90
2019-01-14T21:30:24.245Z,99.90
2019-01-14T21:32:53.714Z,99.90
2019-01-14T21:35:23.168Z,99.90
2019-01-14T21:37:57.641Z,99.90
2019-01-14T21:40:27.009Z,99.90
2019-01-14T21:42:56.676Z,99.90
2019-01-14T21:45:26.175Z,99.90
2019-01-14T21:47:55.504Z,99.90
2019-01-14T21:50:24.850Z,99.90
2019-01-14T21:52:54.205Z,99.90
2019-01-14T21:55:25.306Z,99.90
2019-01-14T21:57:54.661Z,99.90
2019-01-14T22:00:24.955Z,99.90
2019-01-14T22:02:54.509Z,99.90
2019-01-14T22:05:23.983Z,99.90
2019-01-14T22:07:53.481Z,99.90
2019-01-14T22:10:27.804Z,99.90
2019-01-14T22:12:57.169Z,99.90
2019-01-14T22:15:26.587Z,99.90
2019-01-14T22:17:55.972Z,99.90
2019-01-14T22:20:29.626Z,99.90
2019-01-14T22:22:59.301Z,99.90
2019-01-14T22:25:28.768Z,99.90
2019-01-14T22:27:58.141Z,99.90
2019-01-14T22:30:32.511Z,99.90
2019-01-14T22:33:01.874Z,99.90
2019-01-14T22:35:31.352Z,99.90
2019-01-14T22:38:01.684Z,99.90
2019-01-14T22:40:31.095Z,99.90
2019-01-14T22:43:00.505Z,99.90
2019-01-14T22:45:29.868Z,99.90
2019-01-14T22:47:59.241Z,99.90
2019-01-14T22:50:28.580Z,99.90
2019-01-14T22:52:57.936Z,99.90
2019-01-14T22:55:27.270Z,99.90
2019-01-14T22:57:56.640Z,99.90
2019-01-14T23:01:08.108Z,99.90
2019-01-14T23:03:38.014Z,99.90
2019-01-14T23:06:07.399Z,99.90
2019-01-14T23:08:36.810Z,99.90
2019-01-14T23:11:06.248Z,99.90
2019-01-14T23:13:35.607Z,99.90
2019-01-14T23:16:05.383Z,99.90
2019-01-14T23:18:34.700Z,99.90
2019-01-14T23:21:04.768Z,99.90
2019-01-14T23:23:34.109Z,99.90
2019-01-14T23:26:03.419Z,99.90
2019-01-14T23:28:32.756Z,99.90
2019-01-14T23:31:02.109Z,99.90
2019-01-14T23:33:31.441Z,99.90
2019-01-14T23:36:00.749Z,99.90
2019-01-14T23:38:30.170Z,99.90
2019-01-14T23:40:59.551Z,99.90
2019-01-14T23:43:28.870Z,99.90
2019-01-14T23:45:58.259Z,99.90
2019-01-14T23:48:27.595Z,99.90
2019-01-14T23:50:57.110Z,99.90
2019-01-14T23:53:26.465Z,99.90
2019-01-14T23:55:55.792Z,99.90
2019-01-14T23:58:25.187Z,99.90
